Aérodrome :
LOGIN :

S'inscrire | Disclaimer

   EN    FR    IT 

 










Légende :    VFR   VFR Marginal   IFR   IFR Intensif   IFR Très Intensif
Visi : 
Plafond : 
>= 8 km
>= 3000ft
5 à 8 km
1000 à 3000 ft
1500m à 5 km
500 à 1000 ft
800 à 1500m
200 à 500 ft
< 800m
< 200 ft
Symboles :   Orages  Brouillard  Fortes neiges  Fortes précipitations  Vent > 20 kt
SIGMETs :   Divers  Orages  Givrage  Turbulence  Onde Orograph.  Cendres Volcan.







- Altitude de l'aérodrome : 465 ft
- Code IATA : LEJ


EDDP - Leipzig Halle

DERNIER METAR :
  • 210420Z 05005KT 020V080 0300 R08R/0325N R08L/0325N FG BKN001 11/11 Q1002 NOSIG

METARs EXPIRÉS :
  • 210350Z 05005KT 0300 R08R/0325N R08L/0300N FG BKN001 10/10 Q1002 NOSIG
  • 210320Z 06006KT 0300 R08R/0375N R08L/0325D FG BKN001 10/10 Q1002 NOSIG
  • 210250Z 06004KT 0300 R08R/0500N R08L/0350V0500N FG BKN001 11/11 Q1002 NOSIG
  • 210220Z 07007KT 0500 R08R/P2000N R08L/0375V0550D FG BKN001 11/11 Q1001 TEMPO 0300 FG
  • 210150Z 07004KT 040V100 1000 R08R/P2000N R08L/0600V0800D BCFG BR FEW001 11/11 Q1001 TEMPO 0700 FG

TAF AMD TAF EDDP
Valide du 21 à 02h jusqu'au 22 à 00h UTC


210222Z 2102/2124 08004KT 2000 BCFG NSC
TEMPO 2102/2107 0300 FG OVC001
BECMG 2106/2109 9999
BECMG 2112/2114 33007KT
PROB30
TEMPO 2115/2120 30015G25KT 4000 TSRA BKN020CB
Pas de NOTAMs connus pour ce terrain.



MET'MAP, la Météo Aéronautique d'un coup d'oeil ! - Copyright ORBIFLY Décembre 2007 - Disclaimer

ORBIFLY MET'MAP TEAM :

Programmation & Développement : Alexandra Zaïnal
Conception & Développement : Baudouin d'Aumeries
Co-Programmation & Développement : Marc-Olivier Méhu
Soutien technique & logistique : Manuel Goepfert

Contact : metmap@orbifly.com




SOURCES & CREDITS :

   NOAA